sensor_id;sensor_type;location;lat;lon;timestamp;temperature;humidity
10802;DHT22;5453;50.852;7.102;2023-01-19T00:02:18;2.30;99.90
10802;DHT22;5453;50.852;7.102;2023-01-19T00:04:50;2.30;99.90
10802;DHT22;5453;50.852;7.102;2023-01-19T00:07:22;2.30;99.90
10802;DHT22;5453;50.852;7.102;2023-01-19T00:09:56;2.30;99.90
10802;DHT22;5453;50.852;7.102;2023-01-19T00:12:28;2.30;99.90
10802;DHT22;5453;50.852;7.102;2023-01-19T00:15:01;2.30;99.90
10802;DHT22;5453;50.852;7.102;2023-01-19T00:17:33;2.30;99.90
10802;DHT22;5453;50.852;7.102;2023-01-19T00:20:06;2.20;99.90
10802;DHT22;5453;50.852;7.102;2023-01-19T00:22:39;2.30;99.90
10802;DHT22;5453;50.852;7.102;2023-01-19T00:25:13;2.20;99.90
10802;DHT22;5453;50.852;7.102;2023-01-19T00:27:45;2.30;99.90
10802;DHT22;5453;50.852;7.102;2023-01-19T00:30:19;2.20;99.90
10802;DHT22;5453;50.852;7.102;2023-01-19T00:32:51;2.20;99.90
10802;DHT22;5453;50.852;7.102;2023-01-19T00:35:23;2.20;99.90
10802;DHT22;5453;50.852;7.102;2023-01-19T00:37:55;2.20;99.90
10802;DHT22;5453;50.852;7.102;2023-01-19T00:43:20;2.20;99.90
10802;DHT22;5453;50.852;7.102;2023-01-19T00:45:52;2.20;99.90
10802;DHT22;5453;50.852;7.102;2023-01-19T00:48:25;2.20;99.90
10802;DHT22;5453;50.852;7.102;2023-01-19T00:50:57;2.20;99.90
10802;DHT22;5453;50.852;7.102;2023-01-19T00:53:31;2.20;99.90
10802;DHT22;5453;50.852;7.102;2023-01-19T00:56:03;2.10;99.90
10802;DHT22;5453;50.852;7.102;2023-01-19T00:58:37;2.10;99.90
10802;DHT22;5453;50.852;7.102;2023-01-19T01:01:09;2.10;99.90
10802;DHT22;5453;50.852;7.102;2023-01-19T01:03:42;2.10;99.90
10802;DHT22;5453;50.852;7.102;2023-01-19T01:06:16;2.10;99.90
10802;DHT22;5453;50.852;7.102;2023-01-19T01:08:48;2.10;99.90
10802;DHT22;5453;50.852;7.102;2023-01-19T01:11:20;2.00;99.90
10802;DHT22;5453;50.852;7.102;2023-01-19T01:13:54;2.00;99.90
10802;DHT22;5453;50.852;7.102;2023-01-19T01:16:26;2.00;99.90
10802;DHT22;5453;50.852;7.102;2023-01-19T01:18:58;2.00;99.90
10802;DHT22;5453;50.852;7.102;2023-01-19T01:21:30;1.90;99.90
10802;DHT22;5453;50.852;7.102;2023-01-19T01:24:04;1.90;99.90
10802;DHT22;5453;50.852;7.102;2023-01-19T01:26:37;1.90;99.90
10802;DHT22;5453;50.852;7.102;2023-01-19T01:29:10;1.90;99.90
10802;DHT22;5453;50.852;7.102;2023-01-19T01:31:43;1.90;99.90
10802;DHT22;5453;50.852;7.102;2023-01-19T01:34:15;2.00;99.90
10802;DHT22;5453;50.852;7.102;2023-01-19T01:36:47;2.00;99.90
10802;DHT22;5453;50.852;7.102;2023-01-19T01:39:19;2.00;99.90
10802;DHT22;5453;50.852;7.102;2023-01-19T01:41:53;2.00;99.90
10802;DHT22;5453;50.852;7.102;2023-01-19T01:44:47;2.10;99.90
10802;DHT22;5453;50.852;7.102;2023-01-19T01:47:25;2.10;99.90
10802;DHT22;5453;50.852;7.102;2023-01-19T01:50:07;2.10;99.90
10802;DHT22;5453;50.852;7.102;2023-01-19T01:52:44;2.10;99.90
10802;DHT22;5453;50.852;7.102;2023-01-19T01:55:21;2.10;99.90
10802;DHT22;5453;50.852;7.102;2023-01-19T01:57:55;2.10;99.90
10802;DHT22;5453;50.852;7.102;2023-01-19T02:00:31;2.00;99.90
10802;DHT22;5453;50.852;7.102;2023-01-19T02:03:25;2.00;99.90
10802;DHT22;5453;50.852;7.102;2023-01-19T02:06:00;2.00;99.90
10802;DHT22;5453;50.852;7.102;2023-01-19T02:08:36;2.00;99.90
10802;DHT22;5453;50.852;7.102;2023-01-19T02:11:28;2.00;99.90
10802;DHT22;5453;50.852;7.102;2023-01-19T02:14:18;2.00;99.90
10802;DHT22;5453;50.852;7.102;2023-01-19T02:16:51;2.10;99.90
10802;DHT22;5453;50.852;7.102;2023-01-19T02:19:28;2.10;99.90
10802;DHT22;5453;50.852;7.102;2023-01-19T02:22:10;2.10;99.90
10802;DHT22;5453;50.852;7.102;2023-01-19T02:24:48;2.10;99.90
10802;DHT22;5453;50.852;7.102;2023-01-19T02:27:20;2.10;99.90
10802;DHT22;5453;50.852;7.102;2023-01-19T02:29:53;2.20;99.90
10802;DHT22;5453;50.852;7.102;2023-01-19T02:32:26;2.20;99.90
10802;DHT22;5453;50.852;7.102;2023-01-19T02:34:58;2.20;99.90
10802;DHT22;5453;50.852;7.102;2023-01-19T02:37:33;2.30;99.90
10802;DHT22;5453;50.852;7.102;2023-01-19T02:40:13;2.30;99.90
10802;DHT22;5453;50.852;7.102;2023-01-19T02:42:48;2.30;99.90
10802;DHT22;5453;50.852;7.102;2023-01-19T02:45:22;2.30;99.90
10802;DHT22;5453;50.852;7.102;2023-01-19T02:47:54;2.40;99.90
10802;DHT22;5453;50.852;7.102;2023-01-19T02:50:41;2.40;99.90
10802;DHT22;5453;50.852;7.102;2023-01-19T02:53:43;2.40;99.90
10802;DHT22;5453;50.852;7.102;2023-01-19T02:56:45;2.40;99.90
10802;DHT22;5453;50.852;7.102;2023-01-19T02:59:36;2.40;99.90
10802;DHT22;5453;50.852;7.102;2023-01-19T03:02:30;2.40;99.90
10802;DHT22;5453;50.852;7.102;2023-01-19T03:05:20;2.40;99.90
10802;DHT22;5453;50.852;7.102;2023-01-19T03:08:07;2.40;99.90
10802;DHT22;5453;50.852;7.102;2023-01-19T03:10:52;2.40;99.90
10802;DHT22;5453;50.852;7.102;2023-01-19T03:13:33;2.40;99.90
10802;DHT22;5453;50.852;7.102;2023-01-19T03:16:16;2.40;99.90
10802;DHT22;5453;50.852;7.102;2023-01-19T03:18:53;2.40;99.90
10802;DHT22;5453;50.852;7.102;2023-01-19T03:21:29;2.40;99.90
10802;DHT22;5453;50.852;7.102;2023-01-19T03:24:05;2.40;99.90
10802;DHT22;5453;50.852;7.102;2023-01-19T03:26:40;2.30;99.90
10802;DHT22;5453;50.852;7.102;2023-01-19T03:29:17;2.30;99.90
10802;DHT22;5453;50.852;7.102;2023-01-19T03:31:51;2.30;99.90
10802;DHT22;5453;50.852;7.102;2023-01-19T03:34:25;2.40;99.90
10802;DHT22;5453;50.852;7.102;2023-01-19T03:37:03;2.40;99.90
10802;DHT22;5453;50.852;7.102;2023-01-19T03:39:36;2.40;99.90
10802;DHT22;5453;50.852;7.102;2023-01-19T03:42:11;2.40;99.90
10802;DHT22;5453;50.852;7.102;2023-01-19T03:44:46;2.40;99.90
10802;DHT22;5453;50.852;7.102;2023-01-19T03:47:21;2.50;99.90
10802;DHT22;5453;50.852;7.102;2023-01-19T03:49:55;2.50;99.90
10802;DHT22;5453;50.852;7.102;2023-01-19T03:52:30;2.50;99.90
10802;DHT22;5453;50.852;7.102;2023-01-19T03:55:05;2.60;99.90
10802;DHT22;5453;50.852;7.102;2023-01-19T03:57:39;2.60;99.90
10802;DHT22;5453;50.852;7.102;2023-01-19T04:00:14;2.60;99.90
10802;DHT22;5453;50.852;7.102;2023-01-19T04:02:47;2.60;99.90
10802;DHT22;5453;50.852;7.102;2023-01-19T04:05:19;2.60;99.90
10802;DHT22;5453;50.852;7.102;2023-01-19T04:07:51;2.60;99.90
10802;DHT22;5453;50.852;7.102;2023-01-19T04:10:24;2.60;99.90
10802;DHT22;5453;50.852;7.102;2023-01-19T04:12:56;2.60;99.90
10802;DHT22;5453;50.852;7.102;2023-01-19T04:15:31;2.60;99.90
10802;DHT22;5453;50.852;7.102;2023-01-19T04:18:03;2.60;99.90
10802;DHT22;5453;50.852;7.102;2023-01-19T04:20:36;2.60;99.90
10802;DHT22;5453;50.852;7.102;2023-01-19T04:23:08;2.60;99.90
10802;DHT22;5453;50.852;7.102;2023-01-19T04:25:40;2.60;99.90
10802;DHT22;5453;50.852;7.102;2023-01-19T04:28:12;2.60;99.90
10802;DHT22;5453;50.852;7.102;2023-01-19T04:30:48;2.60;99.90
10802;DHT22;5453;50.852;7.102;2023-01-19T04:33:21;2.60;99.90
10802;DHT22;5453;50.852;7.102;2023-01-19T04:35:54;2.60;99.90
10802;DHT22;5453;50.852;7.102;2023-01-19T04:38:27;2.60;99.90
10802;DHT22;5453;50.852;7.102;2023-01-19T04:40:59;2.60;99.90
10802;DHT22;5453;50.852;7.102;2023-01-19T04:43:31;2.60;99.90
10802;DHT22;5453;50.852;7.102;2023-01-19T04:46:05;2.60;99.90
10802;DHT22;5453;50.852;7.102;2023-01-19T04:48:37;2.60;99.90
10802;DHT22;5453;50.852;7.102;2023-01-19T04:51:09;2.50;99.90
10802;DHT22;5453;50.852;7.102;2023-01-19T04:53:41;2.50;99.90
10802;DHT22;5453;50.852;7.102;2023-01-19T04:56:14;2.60;99.90
10802;DHT22;5453;50.852;7.102;2023-01-19T04:58:46;2.50;99.90
10802;DHT22;5453;50.852;7.102;2023-01-19T05:01:19;2.50;99.90
10802;DHT22;5453;50.852;7.102;2023-01-19T05:03:52;2.60;99.90
10802;DHT22;5453;50.852;7.102;2023-01-19T05:06:24;2.60;99.90
10802;DHT22;5453;50.852;7.102;2023-01-19T05:08:57;2.60;99.90
10802;DHT22;5453;50.852;7.102;2023-01-19T05:11:30;2.60;99.90
10802;DHT22;5453;50.852;7.102;2023-01-19T05:14:02;2.60;99.90
10802;DHT22;5453;50.852;7.102;2023-01-19T05:16:36;2.60;99.90
10802;DHT22;5453;50.852;7.102;2023-01-19T05:19:09;2.60;99.90
10802;DHT22;5453;50.852;7.102;2023-01-19T05:21:41;2.70;99.90
10802;DHT22;5453;50.852;7.102;2023-01-19T05:24:14;2.70;99.90
10802;DHT22;5453;50.852;7.102;2023-01-19T05:26:46;2.80;99.90
10802;DHT22;5453;50.852;7.102;2023-01-19T05:29:18;2.80;99.90
10802;DHT22;5453;50.852;7.102;2023-01-19T05:31:52;2.90;99.90
10802;DHT22;5453;50.852;7.102;2023-01-19T05:34:24;2.90;99.90
10802;DHT22;5453;50.852;7.102;2023-01-19T05:36:56;3.00;99.90
10802;DHT22;5453;50.852;7.102;2023-01-19T05:39:29;3.10;99.90
10802;DHT22;5453;50.852;7.102;2023-01-19T05:42:01;3.10;99.90
10802;DHT22;5453;50.852;7.102;2023-01-19T05:44:33;3.10;99.90
10802;DHT22;5453;50.852;7.102;2023-01-19T05:47:06;3.20;99.90
10802;DHT22;5453;50.852;7.102;2023-01-19T05:49:39;3.20;99.90
10802;DHT22;5453;50.852;7.102;2023-01-19T05:52:12;3.20;99.90
10802;DHT22;5453;50.852;7.102;2023-01-19T05:54:44;3.20;99.90
10802;DHT22;5453;50.852;7.102;2023-01-19T05:57:17;3.20;99.90
10802;DHT22;5453;50.852;7.102;2023-01-19T05:59:50;3.30;99.90
10802;DHT22;5453;50.852;7.102;2023-01-19T06:02:23;3.20;99.90
10802;DHT22;5453;50.852;7.102;2023-01-19T06:04:58;3.30;99.90
10802;DHT22;5453;50.852;7.102;2023-01-19T06:07:30;3.20;99.90
10802;DHT22;5453;50.852;7.102;2023-01-19T06:10:03;3.20;99.90
10802;DHT22;5453;50.852;7.102;2023-01-19T06:12:37;3.20;99.90
10802;DHT22;5453;50.852;7.102;2023-01-19T06:15:10;3.20;99.90
10802;DHT22;5453;50.852;7.102;2023-01-19T06:17:45;3.20;99.90
10802;DHT22;5453;50.852;7.102;2023-01-19T06:20:18;3.20;99.90
10802;DHT22;5453;50.852;7.102;2023-01-19T06:22:50;3.10;99.90
10802;DHT22;5453;50.852;7.102;2023-01-19T06:25:22;3.10;99.90
10802;DHT22;5453;50.852;7.102;2023-01-19T06:27:55;3.10;99.90
10802;DHT22;5453;50.852;7.102;2023-01-19T06:30:27;3.10;99.90
10802;DHT22;5453;50.852;7.102;2023-01-19T06:33:00;3.00;99.90
10802;DHT22;5453;50.852;7.102;2023-01-19T06:35:32;3.00;99.90
10802;DHT22;5453;50.852;7.102;2023-01-19T06:38:05;3.00;99.90
10802;DHT22;5453;50.852;7.102;2023-01-19T06:40:37;3.00;99.90
10802;DHT22;5453;50.852;7.102;2023-01-19T06:43:10;2.90;99.90
10802;DHT22;5453;50.852;7.102;2023-01-19T06:45:42;2.90;99.90
10802;DHT22;5453;50.852;7.102;2023-01-19T06:48:15;2.90;99.90
10802;DHT22;5453;50.852;7.102;2023-01-19T06:50:48;2.90;99.90
10802;DHT22;5453;50.852;7.102;2023-01-19T06:53:20;2.80;99.90
10802;DHT22;5453;50.852;7.102;2023-01-19T06:55:52;2.80;99.90
10802;DHT22;5453;50.852;7.102;2023-01-19T06:58:24;2.80;99.90
10802;DHT22;5453;50.852;7.102;2023-01-19T07:01:00;2.80;99.90
10802;DHT22;5453;50.852;7.102;2023-01-19T07:03:34;2.80;99.90
10802;DHT22;5453;50.852;7.102;2023-01-19T07:06:08;2.80;99.90
10802;DHT22;5453;50.852;7.102;2023-01-19T07:08:40;2.80;99.90
10802;DHT22;5453;50.852;7.102;2023-01-19T07:11:12;2.70;99.90
10802;DHT22;5453;50.852;7.102;2023-01-19T07:13:44;2.70;99.90
10802;DHT22;5453;50.852;7.102;2023-01-19T07:16:21;2.80;99.90
10802;DHT22;5453;50.852;7.102;2023-01-19T07:18:54;2.80;99.90
10802;DHT22;5453;50.852;7.102;2023-01-19T07:21:27;2.70;99.90
10802;DHT22;5453;50.852;7.102;2023-01-19T07:23:59;2.70;99.90
10802;DHT22;5453;50.852;7.102;2023-01-19T07:26:31;2.70;99.90
10802;DHT22;5453;50.852;7.102;2023-01-19T07:29:03;2.70;99.90
10802;DHT22;5453;50.852;7.102;2023-01-19T07:31:35;2.70;99.90
10802;DHT22;5453;50.852;7.102;2023-01-19T07:34:08;2.70;99.90
10802;DHT22;5453;50.852;7.102;2023-01-19T07:36:40;2.70;99.90
10802;DHT22;5453;50.852;7.102;2023-01-19T07:39:13;2.60;99.90
10802;DHT22;5453;50.852;7.102;2023-01-19T07:41:47;2.60;99.90
10802;DHT22;5453;50.852;7.102;2023-01-19T07:44:19;2.60;99.90
10802;DHT22;5453;50.852;7.102;2023-01-19T07:46:51;2.70;99.90
10802;DHT22;5453;50.852;7.102;2023-01-19T07:49:25;2.60;99.90
10802;DHT22;5453;50.852;7.102;2023-01-19T07:51:57;2.70;99.90
10802;DHT22;5453;50.852;7.102;2023-01-19T07:54:29;2.60;99.90
10802;DHT22;5453;50.852;7.102;2023-01-19T07:57:01;2.60;99.90
10802;DHT22;5453;50.852;7.102;2023-01-19T07:59:33;2.70;99.90
10802;DHT22;5453;50.852;7.102;2023-01-19T08:02:05;2.60;99.90
10802;DHT22;5453;50.852;7.102;2023-01-19T08:04:39;2.60;99.90
10802;DHT22;5453;50.852;7.102;2023-01-19T08:07:11;2.70;99.90
10802;DHT22;5453;50.852;7.102;2023-01-19T08:09:43;2.70;99.90
10802;DHT22;5453;50.852;7.102;2023-01-19T08:12:15;2.60;99.90
10802;DHT22;5453;50.852;7.102;2023-01-19T08:14:48;2.70;99.90
10802;DHT22;5453;50.852;7.102;2023-01-19T08:17:20;2.70;99.90
10802;DHT22;5453;50.852;7.102;2023-01-19T08:19:53;2.70;99.90
10802;DHT22;5453;50.852;7.102;2023-01-19T08:22:25;2.70;99.90
10802;DHT22;5453;50.852;7.102;2023-01-19T08:24:58;2.70;99.90
10802;DHT22;5453;50.852;7.102;2023-01-19T08:27:30;2.70;99.90
10802;DHT22;5453;50.852;7.102;2023-01-19T08:30:02;2.70;99.90
10802;DHT22;5453;50.852;7.102;2023-01-19T08:32:34;2.70;99.90
10802;DHT22;5453;50.852;7.102;2023-01-19T08:35:08;2.70;99.90
10802;DHT22;5453;50.852;7.102;2023-01-19T08:37:40;2.70;99.90
10802;DHT22;5453;50.852;7.102;2023-01-19T08:40:12;2.80;99.90
10802;DHT22;5453;50.852;7.102;2023-01-19T08:42:45;2.80;99.90
10802;DHT22;5453;50.852;7.102;2023-01-19T08:45:17;2.90;99.90
10802;DHT22;5453;50.852;7.102;2023-01-19T08:47:49;3.30;99.90
10802;DHT22;5453;50.852;7.102;2023-01-19T08:50:22;3.30;99.90
10802;DHT22;5453;50.852;7.102;2023-01-19T08:52:55;3.50;99.90
10802;DHT22;5453;50.852;7.102;2023-01-19T08:55:28;3.40;99.90
10802;DHT22;5453;50.852;7.102;2023-01-19T08:58:01;3.70;99.90
10802;DHT22;5453;50.852;7.102;2023-01-19T09:00:35;3.70;99.90
10802;DHT22;5453;50.852;7.102;2023-01-19T09:03:11;3.60;99.90
10802;DHT22;5453;50.852;7.102;2023-01-19T09:05:45;3.50;99.90
10802;DHT22;5453;50.852;7.102;2023-01-19T09:08:17;3.40;99.90
10802;DHT22;5453;50.852;7.102;2023-01-19T09:10:50;3.40;99.90
10802;DHT22;5453;50.852;7.102;2023-01-19T09:13:22;3.30;99.90
10802;DHT22;5453;50.852;7.102;2023-01-19T09:15:54;3.30;99.90
10802;DHT22;5453;50.852;7.102;2023-01-19T09:18:26;3.20;99.90
10802;DHT22;5453;50.852;7.102;2023-01-19T09:21:00;3.20;99.90
10802;DHT22;5453;50.852;7.102;2023-01-19T09:23:33;3.20;99.90
10802;DHT22;5453;50.852;7.102;2023-01-19T09:26:06;3.20;99.90
10802;DHT22;5453;50.852;7.102;2023-01-19T09:28:38;3.20;99.90
10802;DHT22;5453;50.852;7.102;2023-01-19T09:31:10;3.20;99.90
10802;DHT22;5453;50.852;7.102;2023-01-19T09:33:42;3.20;99.90
10802;DHT22;5453;50.852;7.102;2023-01-19T09:36:16;3.30;99.90
10802;DHT22;5453;50.852;7.102;2023-01-19T09:38:48;3.40;99.90
10802;DHT22;5453;50.852;7.102;2023-01-19T09:41:21;3.50;99.90
10802;DHT22;5453;50.852;7.102;2023-01-19T09:43:56;3.50;99.90
10802;DHT22;5453;50.852;7.102;2023-01-19T09:46:33;3.50;99.90
10802;DHT22;5453;50.852;7.102;2023-01-19T09:49:12;3.40;99.90
10802;DHT22;5453;50.852;7.102;2023-01-19T09:51:49;3.40;99.90
10802;DHT22;5453;50.852;7.102;2023-01-19T09:54:27;3.40;99.90
10802;DHT22;5453;50.852;7.102;2023-01-19T09:57:00;3.50;99.90
10802;DHT22;5453;50.852;7.102;2023-01-19T09:59:33;3.40;99.90
10802;DHT22;5453;50.852;7.102;2023-01-19T10:02:17;3.40;99.90
10802;DHT22;5453;50.852;7.102;2023-01-19T10:04:58;3.50;99.90
10802;DHT22;5453;50.852;7.102;2023-01-19T10:07:46;3.50;99.90
10802;DHT22;5453;50.852;7.102;2023-01-19T10:10:26;3.50;99.90
10802;DHT22;5453;50.852;7.102;2023-01-19T10:13:09;3.50;99.90
10802;DHT22;5453;50.852;7.102;2023-01-19T10:15:57;3.50;99.90
10802;DHT22;5453;50.852;7.102;2023-01-19T10:18:41;3.50;99.90
10802;DHT22;5453;50.852;7.102;2023-01-19T10:21:19;3.50;99.90
10802;DHT22;5453;50.852;7.102;2023-01-19T10:23:57;3.50;99.90
10802;DHT22;5453;50.852;7.102;2023-01-19T10:26:33;3.50;99.90
10802;DHT22;5453;50.852;7.102;2023-01-19T10:29:17;3.50;99.90
10802;DHT22;5453;50.852;7.102;2023-01-19T10:31:59;3.50;99.90
10802;DHT22;5453;50.852;7.102;2023-01-19T10:34:35;3.50;99.90
10802;DHT22;5453;50.852;7.102;2023-01-19T10:37:16;3.50;99.90
10802;DHT22;5453;50.852;7.102;2023-01-19T10:39:54;3.50;99.90
10802;DHT22;5453;50.852;7.102;2023-01-19T10:42:29;3.50;99.90
10802;DHT22;5453;50.852;7.102;2023-01-19T10:45:02;3.50;99.90
10802;DHT22;5453;50.852;7.102;2023-01-19T10:47:35;3.40;99.90
10802;DHT22;5453;50.852;7.102;2023-01-19T10:50:22;3.40;99.90
10802;DHT22;5453;50.852;7.102;2023-01-19T10:52:57;3.40;99.90
10802;DHT22;5453;50.852;7.102;2023-01-19T10:55:34;3.40;99.90
10802;DHT22;5453;50.852;7.102;2023-01-19T10:58:27;3.50;99.90
10802;DHT22;5453;50.852;7.102;2023-01-19T11:01:12;3.50;99.90
10802;DHT22;5453;50.852;7.102;2023-01-19T11:03:47;3.50;99.90
10802;DHT22;5453;50.852;7.102;2023-01-19T11:06:27;3.50;99.90
10802;DHT22;5453;50.852;7.102;2023-01-19T11:09:14;3.50;99.90
10802;DHT22;5453;50.852;7.102;2023-01-19T11:11:50;3.60;99.90
10802;DHT22;5453;50.852;7.102;2023-01-19T11:14:23;3.60;99.90
10802;DHT22;5453;50.852;7.102;2023-01-19T11:16:57;3.60;99.90
10802;DHT22;5453;50.852;7.102;2023-01-19T11:19:31;3.60;99.90
10802;DHT22;5453;50.852;7.102;2023-01-19T11:22:10;3.60;99.90
10802;DHT22;5453;50.852;7.102;2023-01-19T11:24:51;3.60;99.90
10802;DHT22;5453;50.852;7.102;2023-01-19T11:27:25;3.70;99.90
10802;DHT22;5453;50.852;7.102;2023-01-19T11:30:03;3.70;99.90
10802;DHT22;5453;50.852;7.102;2023-01-19T11:32:39;3.80;99.90
10802;DHT22;5453;50.852;7.102;2023-01-19T11:35:32;3.80;99.90
10802;DHT22;5453;50.852;7.102;2023-01-19T11:38:17;3.80;99.90
10802;DHT22;5453;50.852;7.102;2023-01-19T11:40:54;3.90;99.90
10802;DHT22;5453;50.852;7.102;2023-01-19T11:43:29;3.90;99.90
10802;DHT22;5453;50.852;7.102;2023-01-19T11:46:01;3.90;99.90
10802;DHT22;5453;50.852;7.102;2023-01-19T11:48:37;4.00;99.90
10802;DHT22;5453;50.852;7.102;2023-01-19T11:51:15;4.00;99.90
10802;DHT22;5453;50.852;7.102;2023-01-19T11:53:51;4.00;99.90
10802;DHT22;5453;50.852;7.102;2023-01-19T11:56:26;4.00;99.90
10802;DHT22;5453;50.852;7.102;2023-01-19T11:59:01;4.10;99.90
10802;DHT22;5453;50.852;7.102;2023-01-19T12:01:36;4.10;99.90
10802;DHT22;5453;50.852;7.102;2023-01-19T12:04:15;4.10;99.90
10802;DHT22;5453;50.852;7.102;2023-01-19T12:06:53;4.20;99.90
10802;DHT22;5453;50.852;7.102;2023-01-19T12:09:28;4.20;99.90
10802;DHT22;5453;50.852;7.102;2023-01-19T12:12:06;4.30;99.90
10802;DHT22;5453;50.852;7.102;2023-01-19T12:14:49;4.30;99.90
10802;DHT22;5453;50.852;7.102;2023-01-19T12:17:26;4.40;99.90
10802;DHT22;5453;50.852;7.102;2023-01-19T12:20:02;4.60;99.90
10802;DHT22;5453;50.852;7.102;2023-01-19T12:22:41;4.80;99.90
10802;DHT22;5453;50.852;7.102;2023-01-19T12:25:21;5.00;99.90
10802;DHT22;5453;50.852;7.102;2023-01-19T12:27:56;5.20;99.90
10802;DHT22;5453;50.852;7.102;2023-01-19T12:30:30;5.30;99.90
10802;DHT22;5453;50.852;7.102;2023-01-19T12:36:11;5.50;99.90
10802;DHT22;5453;50.852;7.102;2023-01-19T12:39:14;5.50;99.90
10802;DHT22;5453;50.852;7.102;2023-01-19T12:42:04;5.50;99.90
10802;DHT22;5453;50.852;7.102;2023-01-19T12:44:43;5.50;99.90
10802;DHT22;5453;50.852;7.102;2023-01-19T12:47:19;5.50;99.90
10802;DHT22;5453;50.852;7.102;2023-01-19T12:49:55;5.50;99.90
10802;DHT22;5453;50.852;7.102;2023-01-19T12:52:34;5.50;99.90
10802;DHT22;5453;50.852;7.102;2023-01-19T12:55:20;5.50;99.90
10802;DHT22;5453;50.852;7.102;2023-01-19T12:57:57;5.60;99.90
10802;DHT22;5453;50.852;7.102;2023-01-19T13:00:36;5.70;99.90
10802;DHT22;5453;50.852;7.102;2023-01-19T13:03:42;5.70;99.90
10802;DHT22;5453;50.852;7.102;2023-01-19T13:06:16;5.70;99.90
10802;DHT22;5453;50.852;7.102;2023-01-19T13:08:56;5.70;99.90
10802;DHT22;5453;50.852;7.102;2023-01-19T13:11:30;5.60;99.90
10802;DHT22;5453;50.852;7.102;2023-01-19T13:14:32;5.60;99.90
10802;DHT22;5453;50.852;7.102;2023-01-19T13:17:23;5.50;99.90
10802;DHT22;5453;50.852;7.102;2023-01-19T13:23:18;5.50;99.90
10802;DHT22;5453;50.852;7.102;2023-01-19T13:26:02;5.60;99.90
10802;DHT22;5453;50.852;7.102;2023-01-19T13:28:39;5.50;99.90
10802;DHT22;5453;50.852;7.102;2023-01-19T13:31:13;5.50;99.90
10802;DHT22;5453;50.852;7.102;2023-01-19T13:33:48;5.50;99.90
10802;DHT22;5453;50.852;7.102;2023-01-19T13:36:26;5.50;99.90
10802;DHT22;5453;50.852;7.102;2023-01-19T13:39:02;5.50;99.90
10802;DHT22;5453;50.852;7.102;2023-01-19T13:41:38;5.50;99.90
10802;DHT22;5453;50.852;7.102;2023-01-19T13:44:12;5.50;99.90
10802;DHT22;5453;50.852;7.102;2023-01-19T13:46:45;5.60;99.90
10802;DHT22;5453;50.852;7.102;2023-01-19T13:49:22;5.50;99.90
10802;DHT22;5453;50.852;7.102;2023-01-19T13:52:12;5.60;99.90
10802;DHT22;5453;50.852;7.102;2023-01-19T13:54:47;5.60;99.90
10802;DHT22;5453;50.852;7.102;2023-01-19T13:57:22;5.60;99.90
10802;DHT22;5453;50.852;7.102;2023-01-19T14:00:06;5.60;99.90
10802;DHT22;5453;50.852;7.102;2023-01-19T14:02:56;5.50;99.90
10802;DHT22;5453;50.852;7.102;2023-01-19T14:05:31;5.40;99.90
10802;DHT22;5453;50.852;7.102;2023-01-19T14:08:11;5.30;99.90
10802;DHT22;5453;50.852;7.102;2023-01-19T14:10:46;5.30;99.90
10802;DHT22;5453;50.852;7.102;2023-01-19T14:13:32;5.20;99.90
10802;DHT22;5453;50.852;7.102;2023-01-19T14:16:14;5.10;99.90
10802;DHT22;5453;50.852;7.102;2023-01-19T14:18:58;5.10;99.90
10802;DHT22;5453;50.852;7.102;2023-01-19T14:21:39;5.00;99.90
10802;DHT22;5453;50.852;7.102;2023-01-19T14:24:17;5.00;99.90
10802;DHT22;5453;50.852;7.102;2023-01-19T14:26:51;5.10;99.90
10802;DHT22;5453;50.852;7.102;2023-01-19T14:29:26;5.00;99.90
10802;DHT22;5453;50.852;7.102;2023-01-19T14:32:09;5.00;99.90
10802;DHT22;5453;50.852;7.102;2023-01-19T14:34:45;5.00;99.90
10802;DHT22;5453;50.852;7.102;2023-01-19T14:37:23;4.90;99.90
10802;DHT22;5453;50.852;7.102;2023-01-19T14:40:00;4.90;99.90
10802;DHT22;5453;50.852;7.102;2023-01-19T14:42:37;4.80;99.90
10802;DHT22;5453;50.852;7.102;2023-01-19T14:45:16;4.80;99.90
10802;DHT22;5453;50.852;7.102;2023-01-19T14:47:54;4.80;99.90
10802;DHT22;5453;50.852;7.102;2023-01-19T14:50:31;4.80;99.90
10802;DHT22;5453;50.852;7.102;2023-01-19T14:53:06;4.70;99.90
10802;DHT22;5453;50.852;7.102;2023-01-19T14:55:48;4.70;99.90
10802;DHT22;5453;50.852;7.102;2023-01-19T14:58:24;4.70;99.90
10802;DHT22;5453;50.852;7.102;2023-01-19T15:00:57;4.70;99.90
10802;DHT22;5453;50.852;7.102;2023-01-19T15:03:29;4.70;99.90
10802;DHT22;5453;50.852;7.102;2023-01-19T15:06:02;4.70;99.90
10802;DHT22;5453;50.852;7.102;2023-01-19T15:08:35;4.80;99.90
10802;DHT22;5453;50.852;7.102;2023-01-19T15:11:11;4.80;99.90
10802;DHT22;5453;50.852;7.102;2023-01-19T15:13:49;4.70;99.90
10802;DHT22;5453;50.852;7.102;2023-01-19T15:16:22;4.80;99.90
10802;DHT22;5453;50.852;7.102;2023-01-19T15:18:55;4.80;99.90
10802;DHT22;5453;50.852;7.102;2023-01-19T15:21:27;4.80;99.90
10802;DHT22;5453;50.852;7.102;2023-01-19T15:24:00;4.80;99.90
10802;DHT22;5453;50.852;7.102;2023-01-19T15:26:35;4.70;99.90
10802;DHT22;5453;50.852;7.102;2023-01-19T15:29:19;4.70;99.90
10802;DHT22;5453;50.852;7.102;2023-01-19T15:31:53;4.70;99.90
10802;DHT22;5453;50.852;7.102;2023-01-19T15:34:26;4.70;99.90
10802;DHT22;5453;50.852;7.102;2023-01-19T15:36:58;4.70;99.90
10802;DHT22;5453;50.852;7.102;2023-01-19T15:39:30;4.70;99.90
10802;DHT22;5453;50.852;7.102;2023-01-19T15:42:08;4.70;99.90
10802;DHT22;5453;50.852;7.102;2023-01-19T15:44:41;4.60;99.90
10802;DHT22;5453;50.852;7.102;2023-01-19T15:47:14;4.60;99.90
10802;DHT22;5453;50.852;7.102;2023-01-19T15:49:48;4.60;99.90
10802;DHT22;5453;50.852;7.102;2023-01-19T15:52:21;4.50;99.90
10802;DHT22;5453;50.852;7.102;2023-01-19T15:54:53;4.50;99.90
10802;DHT22;5453;50.852;7.102;2023-01-19T15:57:26;4.50;99.90
10802;DHT22;5453;50.852;7.102;2023-01-19T15:59:58;4.50;99.90
10802;DHT22;5453;50.852;7.102;2023-01-19T16:02:30;5.10;99.90
10802;DHT22;5453;50.852;7.102;2023-01-19T16:05:03;5.10;99.90
10802;DHT22;5453;50.852;7.102;2023-01-19T16:07:36;5.00;99.90
10802;DHT22;5453;50.852;7.102;2023-01-19T16:10:09;4.90;99.90
10802;DHT22;5453;50.852;7.102;2023-01-19T16:12:44;4.80;99.90
10802;DHT22;5453;50.852;7.102;2023-01-19T16:15:17;4.80;99.90
10802;DHT22;5453;50.852;7.102;2023-01-19T16:17:49;4.70;99.90
10802;DHT22;5453;50.852;7.102;2023-01-19T16:20:21;4.70;99.90
10802;DHT22;5453;50.852;7.102;2023-01-19T16:22:53;4.60;99.90
10802;DHT22;5453;50.852;7.102;2023-01-19T16:25:25;4.60;99.90
10802;DHT22;5453;50.852;7.102;2023-01-19T16:27:59;4.60;99.90
10802;DHT22;5453;50.852;7.102;2023-01-19T16:30:31;4.60;99.90
10802;DHT22;5453;50.852;7.102;2023-01-19T16:33:03;4.60;99.90
10802;DHT22;5453;50.852;7.102;2023-01-19T16:35:35;4.60;99.90
10802;DHT22;5453;50.852;7.102;2023-01-19T16:38:07;4.60;99.90
10802;DHT22;5453;50.852;7.102;2023-01-19T16:40:42;4.60;99.90
10802;DHT22;5453;50.852;7.102;2023-01-19T16:43:16;4.50;99.90
10802;DHT22;5453;50.852;7.102;2023-01-19T16:45:57;4.60;99.90
10802;DHT22;5453;50.852;7.102;2023-01-19T16:48:30;4.50;99.90
10802;DHT22;5453;50.852;7.102;2023-01-19T16:51:04;4.50;99.90
10802;DHT22;5453;50.852;7.102;2023-01-19T16:53:36;4.50;99.90
10802;DHT22;5453;50.852;7.102;2023-01-19T16:56:10;4.50;99.90
10802;DHT22;5453;50.852;7.102;2023-01-19T16:58:45;4.50;99.90
10802;DHT22;5453;50.852;7.102;2023-01-19T17:01:18;4.40;99.90
10802;DHT22;5453;50.852;7.102;2023-01-19T17:03:50;4.40;99.90
10802;DHT22;5453;50.852;7.102;2023-01-19T17:06:23;4.40;99.90